Latest Weather Observations for Centre Island

IDD60801

Issued at 3:05 pm CST Thursday 18 September 2014 (issued every 30 minutes, with the page automatically refreshed every 10 minutes)

About weather observations | Map of weather stations | Latest weather observations for NT | Other Formats
Station Details ID: 014703 Name: CENTRE ISLAND Lat: -15.74 Lon: 136.82 Height: 12.2 m
Data from the previous 72 hours. | See also: Recent months at Centre Island
Date/Time
CST
Temp
°C
App
Temp
°C
Dew
Point
Rel
Hum
%
Delta-T
°C
Wind Press
QNH
hPa
Press
MSL
hPa
Rain
since 9 am
mm
Dir
 
Spd
km/h
Gust
km/h
Spd
kts
Gust
kts
18/03:00pm 30.7 29.0 16.3 42 9.0 ENE 20 26 11 14 1014.2 1014.2 0.0
18/02:30pm 30.5 28.2 15.8 41 9.1 ENE 22 26 12 14 1014.4 1014.4 0.0
18/02:00pm 30.7 28.5 14.8 38 9.7 E 20 26 11 14 1014.7 1014.7 0.0
18/01:30pm 31.4 28.8 15.0 37 10.1 E 22 28 12 15 1015.1 1015.1 0.0
18/01:00pm 31.1 28.2 15.1 38 9.8 E 24 32 13 17 1015.5 1015.5 0.0
18/12:30pm 31.1 26.0 13.8 34 10.4 ESE 33 41 18 22 1015.7 1015.7 0.0
18/12:00pm 30.8 25.4 14.0 36 10.1 ESE 35 41 19 22 1016.3 1016.3 0.0
18/11:30am 31.1 26.7 15.1 38 9.8 ESE 32 37 17 20 1016.8 1016.8 0.0
18/11:00am 30.9 26.6 14.5 37 10.0 ESE 30 37 16 20 1017.2 1017.2 0.0
18/10:30am 30.3 28.6 18.1 48 7.8 ESE 24 26 13 14 1017.4 1017.4 0.0
18/10:00am 29.7 28.7 18.8 52 7.0 SE 22 26 12 14 1017.5 1017.5 0.0
18/09:30am 27.6 27.0 20.4 65 4.7 SSE 24 28 13 15 1017.6 1017.6 0.0
18/09:00am 26.3 26.6 20.4 70 3.9 S 19 24 10 13 1017.3 1017.3 0.0
18/08:30am 25.2 25.5 20.5 75 3.1 S 19 24 10 13 1017.2 1017.2 0.0
18/08:00am 24.5 24.7 20.6 79 2.5 S 20 24 11 13 1016.9 1016.9 0.0
18/07:30am 23.7 23.1 20.4 82 2.1 S 24 28 13 15 1016.7 1016.7 0.0
18/07:00am 23.2 23.6 20.7 86 1.6 S 19 22 10 12 1016.3 1016.3 0.0
18/06:30am 23.0 22.6 20.9 88 1.4 S 24 32 13 17 1015.9 1015.9 0.0
18/06:00am 22.9 23.1 21.4 91 1.0 SSW 22 28 12 15 1015.6 1015.6 0.0
18/05:30am 22.9 22.5 21.0 89 1.2 SSW 24 28 13 15 1015.2 1015.2 0.0
18/05:00am 23.0 23.0 21.6 92 0.9 S 24 32 13 17 1014.9 1014.9 0.0
18/04:30am 22.9 23.7 21.7 93 0.8 SSW 20 33 11 18 1014.6 1014.6 0.0
18/04:00am 23.6 25.7 22.4 93 0.8 SSW 15 20 8 11 1014.4 1014.4 0.0
18/03:30am 22.9 25.7 21.5 92 0.9 SW 9 13 5 7 1014.2 1014.2 0.0
18/03:00am 22.8 25.6 21.6 93 0.8 WSW 9 11 5 6 1014.2 1014.2 0.0
18/02:30am 23.0 26.5 22.2 95 0.5 WSW 7 11 4 6 1014.4 1014.4 0.0
18/02:00am 22.6 25.8 21.6 94 0.7 W 7 9 4 5 1014.6 1014.6 0.0
18/01:30am 22.6 26.0 21.6 94 0.7 WNW 6 7 3 4 1014.8 1014.8 0.0
18/01:00am 22.7 26.0 21.5 93 0.8 N 6 7 3 4 1015.2 1015.2 0.0
18/12:30am 22.9 26.3 21.7 93 0.8 N 6 7 3 4 1015.4 1015.4 0.0
18/12:00am 23.1 26.3 21.7 92 0.9 NNW 7 9 4 5 1015.5 1015.5 0.0
 
Date/Time
CST
Temp
°C
App
Temp
°C
Dew
Point
Rel
Hum
%
Delta-T
°C
Wind Press
QNH
hPa
Press
MSL
hPa
Rain
since 9 am
mm
Dir
 
Spd
km/h
Gust
km/h
Spd
kts
Gust
kts
17/11:30pm 23.4 26.3 21.8 91 1.1 N 9 11 5 6 1015.7 1015.7 0.0
17/11:00pm 23.8 27.1 21.9 89 1.3 N 7 11 4 6 1015.8 1015.8 0.0
17/10:30pm 24.2 27.9 22.3 89 1.3 N 6 11 3 6 1015.8 1015.8 0.0
17/10:00pm 24.3 26.7 22.2 88 1.4 NNE 13 17 7 9 1015.7 1015.7 0.0
17/09:30pm 24.5 27.0 22.4 88 1.4 NNE 13 17 7 9 1015.6 1015.6 0.0
17/09:00pm 24.6 25.8 22.1 86 1.7 NNE 19 22 10 12 1015.3 1015.3 0.0
17/08:30pm 24.6 26.4 21.9 85 1.8 NNE 15 19 8 10 1015.1 1015.1 0.0
17/08:00pm 24.8 26.2 21.9 84 1.9 N 17 22 9 12 1014.5 1014.5 0.0
17/07:30pm 24.9 26.0 22.0 84 1.9 NNE 19 24 10 13 1014.3 1014.3 0.0
17/07:00pm 25.1 26.1 21.8 82 2.2 NNE 19 24 10 13 1013.8 1013.8 0.0
17/06:30pm 25.3 25.9 21.4 79 2.6 NNE 20 28 11 15 1013.4 1013.4 0.0
17/06:00pm 25.8 25.9 21.2 76 3.0 NNE 22 30 12 16 1013.0 1013.0 0.0
17/05:30pm 26.7 26.6 20.8 70 3.9 NNE 22 28 12 15 1012.7 1012.7 0.0
17/05:00pm 27.4 27.3 20.7 67 4.4 NNE 22 33 12 18 1012.5 1012.5 0.0
17/04:30pm 27.9 27.4 20.7 65 4.8 NNE 24 32 13 17 1012.3 1012.3 0.0
17/04:00pm 28.5 28.0 20.0 60 5.6 NNE 22 32 12 17 1012.4 1012.4 0.0
17/03:30pm 28.6 27.5 19.5 58 5.9 NNE 24 33 13 18 1012.4 1012.4 0.0
17/03:00pm 29.0 26.8 18.7 53 6.6 NNE 28 35 15 19 1012.7 1012.7 0.0
17/02:30pm 29.2 27.9 20.6 59 5.7 NNE 28 35 15 19 1013.1 1013.1 0.0
17/02:00pm 29.3 28.8 20.7 59 5.7 NNE 24 32 13 17 1013.3 1013.3 0.0
17/01:30pm 29.6 28.5 21.0 60 5.7 NNE 28 35 15 19 1013.7 1013.7 0.0
17/01:00pm 29.0 26.9 21.7 64 4.9 NE 35 46 19 25 1014.3 1014.3 0.0
17/12:54pm 29.8 29.0 21.7 61 5.5 NE 28 43 15 23 1014.4 1014.4 0.0
17/12:30pm 31.7 32.6 19.3 47 8.1 ENE 13 20 7 11 1014.6 1014.6 0.0
17/12:00pm 31.2 31.3 13.9 35 10.4 S 6 9 3 5 1014.7 1014.7 0.0
17/11:30am 29.4 30.7 17.6 49 7.5 SSE 7 9 4 5 1015.1 1015.1 0.0
17/11:00am 29.4 31.2 18.8 53 6.8 SSW 7 9 4 5 1015.3 1015.3 0.0
17/10:30am 28.7 30.7 20.7 62 5.3 SSW 11 15 6 8 1015.8 1015.8 0.0
17/10:00am 27.5 29.1 20.8 67 4.4 SSW 13 17 7 9 1015.9 1015.9 0.0
17/09:30am 26.8 28.2 21.1 71 3.8 SSW 15 19 8 10 1015.8 1015.8 0.0
17/09:00am 25.7 26.9 21.4 77 2.8 S 17 22 9 12 1015.8 1015.8 0.0
17/08:30am 24.2 24.7 21.1 83 2.0 S 20 26 11 14 1015.6 1015.6 0.0
17/08:00am 22.9 24.7 21.9 94 0.7 SSW 15 20 8 11 1015.5 1015.5 0.0
17/07:30am 22.5 24.3 21.8 96 0.5 SSW 15 19 8 10 1015.1 1015.1 0.0
17/07:00am 22.9 24.6 22.4 97 0.3 S 17 24 9 13 1014.7 1014.7 0.0
17/06:30am 22.7 24.7 22.2 97 0.3 S 15 19 8 10 1014.0 1014.0 0.0
17/06:00am 22.9 24.9 22.2 96 0.5 S 15 19 8 10 1013.6 1013.6 0.0
17/05:30am 22.9 24.1 22.1 95 0.5 S 19 20 10 11 1013.4 1013.4 0.0
17/05:00am 23.2 25.3 22.4 95 0.5 SSE 15 19 8 10 1013.0 1013.0 0.0
17/04:30am 23.2 25.7 22.4 95 0.5 S 13 17 7 9 1012.7 1012.7 0.0
17/04:00am 23.3 26.2 22.5 95 0.5 NNW 11 13 6 7 1012.6 1012.6 0.0
17/03:30am 22.5 25.7 21.7 95 0.5 NNW 7 9 4 5 1012.7 1012.7 0.0
17/03:00am 22.3 26.7 21.3 94 0.7 CALM 0 0 0 0 1012.7 1012.7 0.0
17/02:30am 22.1 26.4 21.1 94 0.7 CALM 0 0 0 0 1012.9 1012.9 0.0
17/02:00am 22.6 26.6 21.4 93 0.8 NNW 2 6 1 3 1013.1 1013.1 0.0
17/01:30am 22.3 26.1 20.9 92 0.9 NNW 2 7 1 4 1013.4 1013.4 0.0
17/01:00am 22.6 26.9 21.2 92 0.9 CALM 0 0 0 0 1013.6 1013.6 0.0
17/12:30am 22.7 26.9 21.0 90 1.1 CALM 0 0 0 0 1014.0 1014.0 0.0
17/12:00am 23.2 26.4 21.6 91 1.1 NNE 7 9 4 5 1014.1 1014.1 0.0
 
Date/Time
CST
Temp
°C
App
Temp
°C
Dew
Point
Rel
Hum
%
Delta-T
°C
Wind Press
QNH
hPa
Press
MSL
hPa
Rain
since 9 am
mm
Dir
 
Spd
km/h
Gust
km/h
Spd
kts
Gust
kts
16/11:30pm 23.3 26.7 21.6 90 1.1 N 6 7 3 4 1014.1 1014.1 0.0
16/11:00pm 23.6 27.0 21.7 89 1.3 N 6 9 3 5 1014.1 1014.1 0.0
16/10:30pm 23.8 26.8 21.9 89 1.3 N 9 11 5 6 1014.1 1014.1 0.0
16/10:00pm 24.1 27.2 22.2 89 1.3 NNE 9 13 5 7 1013.9 1013.9 0.0
16/09:30pm 24.2 27.0 22.3 89 1.3 NNE 11 13 6 7 1014.0 1014.0 0.0
16/09:00pm 24.3 27.0 22.2 88 1.4 NE 11 15 6 8 1013.8 1013.8 0.0
16/08:30pm 24.4 26.8 22.3 88 1.4 NNE 13 17 7 9 1013.5 1013.5 0.0
16/08:00pm 24.4 26.4 22.3 88 1.4 NNE 15 17 8 9 1013.3 1013.3 0.0
16/07:30pm 24.5 26.9 22.2 87 1.5 NE 13 15 7 8 1013.0 1013.0 0.0
16/07:00pm 24.7 26.7 22.2 86 1.7 NE 15 19 8 10 1012.8 1012.8 0.0
16/06:30pm 24.9 26.8 22.0 84 1.9 NNE 15 19 8 10 1012.5 1012.5 0.0
16/06:00pm 25.5 26.9 21.8 80 2.5 NNE 17 22 9 12 1012.3 1012.3 0.0
16/05:30pm 26.2 27.1 21.6 76 3.1 NNE 19 24 10 13 1012.1 1012.1 0.0
16/05:00pm 27.0 27.9 21.5 72 3.7 NNE 19 26 10 14 1012.0 1012.0 0.0
16/04:30pm 27.8 27.9 21.1 67 4.5 NNE 22 32 12 17 1011.9 1011.9 0.0
16/04:00pm 28.5 28.8 21.5 66 4.7 NNE 22 28 12 15 1011.9 1011.9 0.0
16/03:30pm 29.0 29.5 21.2 62 5.2 NNE 20 28 11 15 1011.7 1011.7 0.0
16/03:00pm 29.9 30.6 21.6 61 5.6 NE 20 26 11 14 1012.1 1012.1 0.0
16/02:30pm 29.9 30.2 21.6 61 5.6 E 22 28 12 15 1012.6 1012.6 0.0
16/02:00pm 29.4 29.1 21.1 61 5.5 E 24 33 13 18 1013.1 1013.1 0.0
16/01:30pm 30.1 29.6 21.5 60 5.8 ENE 26 35 14 19 1013.5 1013.5 0.0
16/01:00pm 30.1 28.5 20.1 55 6.6 E 28 39 15 21 1013.7 1013.7 0.0
16/12:30pm 29.6 28.0 19.3 54 6.7 NE 26 35 14 19 1013.9 1013.9 0.0
16/12:00pm 29.3 31.2 20.5 59 5.8 E 11 19 6 10 1014.2 1014.2 0.0
16/11:30am 26.9 29.4 21.0 70 3.9 S 9 11 5 6 1014.0 1014.0 0.0
16/11:00am 25.7 28.1 20.9 75 3.2 S 9 11 5 6 1014.2 1014.2 0.0
16/10:30am 25.6 28.1 21.1 76 3.0 SSW 9 13 5 7 1014.5 1014.5 0.0
16/10:00am 25.3 28.0 21.4 79 2.6 SSW 9 11 5 6 1014.7 1014.7 0.0
16/09:30am 23.9 26.9 21.2 85 1.8 SSW 7 11 4 6 1014.8 1014.8 0.0
16/09:00am 22.4 24.9 21.0 92 0.9 S 9 11 5 6 1014.6 1014.6 0.2
16/08:30am 22.1 24.4 21.4 96 0.5 S 11 15 6 8 1014.4 1014.4 0.2
16/08:00am 22.2 24.7 21.7 97 0.3 S 11 15 6 8 1014.2 1014.2 0.2
16/07:30am 22.2 25.1 21.7 97 0.3 SSE 9 15 5 8 1013.9 1013.9 0.2
16/07:00am 22.1 24.4 21.4 96 0.5 S 11 13 6 7 1013.7 1013.7 0.2
16/06:30am 22.5 24.7 21.8 96 0.5 SSE 13 17 7 9 1013.4 1013.4 0.0
16/06:00am 23.0 25.0 22.2 95 0.5 SSE 15 17 8 9 1012.9 1012.9 0.0
16/05:30am 23.0 26.0 22.0 94 0.7 S 9 13 5 7 1012.6 1012.6 0.0
16/05:00am 23.1 25.8 22.1 94 0.7 SSE 11 15 6 8 1012.4 1012.4 0.0
16/04:30am 23.1 26.1 21.9 93 0.8 S 9 13 5 7 1012.1 1012.1 0.0
16/04:00am 22.8 25.6 21.6 93 0.8 SSE 9 11 5 6 1012.0 1012.0 0.0
16/03:30am 22.9 26.2 21.9 94 0.7 S 7 11 4 6 1011.9 1011.9 0.0
16/03:00am 22.6 26.3 21.4 93 0.8 WNW 4 6 2 3 1011.8 1011.8 0.0
16/02:30am 22.6 26.9 21.2 92 0.9 CALM 0 0 0 0 1011.8 1011.8 0.0
16/02:00am 22.7 25.9 21.2 91 1.0 NNE 6 7 3 4 1012.1 1012.1 0.0
16/01:30am 23.0 26.6 21.3 90 1.1 NNE 4 9 2 5 1012.3 1012.3 0.0
16/01:00am 23.0 25.9 21.1 89 1.2 NNE 7 9 4 5 1012.5 1012.5 0.0
16/12:30am 23.4 26.1 21.3 88 1.4 NE 9 11 5 6 1012.8 1012.8 0.0
16/12:00am 23.7 26.1 21.6 88 1.4 NNE 11 15 6 8 1013.0 1013.0 0.0
 
Date/Time
CST
Temp
°C
App
Temp
°C
Dew
Point
Rel
Hum
%
Delta-T
°C
Wind Press
QNH
hPa
Press
MSL
hPa
Rain
since 9 am
mm
Dir
 
Spd
km/h
Gust
km/h
Spd
kts
Gust
kts
15/11:30pm 23.8 26.3 21.7 88 1.4 NNE 11 15 6 8 1013.1 1013.1 0.0
15/11:00pm 23.7 25.7 21.6 88 1.4 NNE 13 17 7 9 1013.0 1013.0 0.0
15/10:30pm 23.7 26.4 21.4 87 1.5 N 9 13 5 7 1013.2 1013.2 0.0
15/10:00pm 23.8 26.1 21.3 86 1.6 N 11 17 6 9 1013.1 1013.1 0.0
15/09:30pm 23.6 26.0 21.5 88 1.4 N 11 15 6 8 1013.1 1013.1 0.0
15/09:00pm 23.8 26.3 21.7 88 1.4 N 11 13 6 7 1012.9 1012.9 0.0
15/08:30pm 24.1 25.9 21.8 87 1.5 N 15 19 8 10 1012.9 1012.9 0.0
15/08:00pm 24.2 25.9 21.7 86 1.7 N 15 20 8 11 1012.7 1012.7 0.0
15/07:30pm 24.3 25.7 21.8 86 1.7 NNE 17 22 9 12 1012.5 1012.5 0.0
15/07:00pm 24.4 25.7 21.7 85 1.8 NNE 17 22 9 12 1012.3 1012.3 0.0
15/06:30pm 24.5 25.4 21.6 84 1.9 NE 19 26 10 14 1012.2 1012.2 0.0
15/06:00pm 24.7 25.3 21.4 82 2.2 NE 20 26 11 14 1012.0 1012.0 0.0
15/05:30pm 25.4 26.1 21.5 79 2.6 NE 20 26 11 14 1011.6 1011.6 0.0
15/05:00pm 25.7 25.8 21.1 76 3.0 NE 22 30 12 16 1011.5 1011.5 0.0
15/04:30pm 26.2 25.8 21.0 73 3.4 NE 24 30 13 16 1011.6 1011.6 0.0
15/04:00pm 27.2 26.8 21.0 69 4.1 NE 24 33 13 18 1011.4 1011.4 0.0
15/03:30pm 26.8 26.2 20.6 69 4.1 NNE 24 33 13 18 1011.7 1011.7 0.0

Other Formats:

Comma delimited format used in spreadsheet applications
http://www.bom.gov.au/fwo/IDD60801/IDD60801.94248.axf

JavaScript Object Notation format (JSON) in row-major order
http://www.bom.gov.au/fwo/IDD60801/IDD60801.94248.json